Time;durP1;ratioP1;P1;durP2;ratioP2;P2;SDS_P1;SDS_P2;PMS_P1;PMS_P2;Temp;Humidity;BMP_temperature;BMP_pressure;BME280_temperature;BME280_humidity;BME280_pressure;Samples;Min_cycle;Max_cycle;Signal;HPM_P1;HPM_P2
2021/09/06 00:00:10;;;;;;;3.47;2.70;;;14.90;99.90;;;;;;4913470;29;20450;-69
2021/09/06 00:02:42;;;;;;;3.23;2.47;;;15.00;99.90;;;;;;4914795;29;20428;-69
2021/09/06 00:05:13;;;;;;;5.30;2.67;;;15.00;99.90;;;;;;4913393;29;20420;-70
2021/09/06 00:07:43;;;;;;;9.73;3.80;;;15.00;99.90;;;;;;4915264;29;20430;-69
2021/09/06 00:10:26;;;;;;;3.90;2.20;;;14.90;99.90;;;;;;4913483;29;20431;-69
2021/09/06 00:12:55;;;;;;;3.80;2.50;;;14.90;99.90;;;;;;4913825;29;20443;-70
2021/09/06 00:15:23;;;;;;;4.17;3.30;;;14.90;99.90;;;;;;4913136;29;20424;-69
2021/09/06 00:17:52;;;;;;;6.60;3.37;;;14.90;99.90;;;;;;4913408;29;20428;-69
2021/09/06 00:20:23;;;;;;;3.23;2.40;;;14.70;99.90;;;;;;4913215;29;20540;-69
2021/09/06 00:22:51;;;;;;;10.40;3.00;;;14.70;99.90;;;;;;4914441;29;20450;-69
2021/09/06 00:25:20;;;;;;;3.83;2.57;;;14.70;99.90;;;;;;4913244;29;20432;-68
2021/09/06 00:27:49;;;;;;;3.67;2.53;;;14.70;99.90;;;;;;4914701;29;20404;-69
2021/09/06 00:30:18;;;;;;;5.07;2.67;;;14.60;99.90;;;;;;4914937;29;20852;-69
2021/09/06 00:32:47;;;;;;;3.70;2.43;;;14.60;99.90;;;;;;4914946;29;20454;-69
2021/09/06 00:35:15;;;;;;;2.80;2.33;;;14.60;99.90;;;;;;4917698;29;20458;-70
2021/09/06 00:37:46;;;;;;;5.03;3.80;;;14.50;99.90;;;;;;4917613;29;20489;-70
2021/09/06 00:40:15;;;;;;;4.63;3.27;;;14.50;99.90;;;;;;4917294;29;20512;-70
2021/09/06 00:42:44;;;;;;;7.03;2.57;;;14.40;99.90;;;;;;4917440;29;20440;-71
2021/09/06 00:45:12;;;;;;;4.73;3.13;;;14.30;99.90;;;;;;4916612;29;20453;-69
2021/09/06 00:47:42;;;;;;;5.80;3.20;;;14.30;99.90;;;;;;4918336;29;20404;-71
2021/09/06 00:50:13;;;;;;;5.73;4.23;;;14.30;99.90;;;;;;4916894;29;20483;-69
2021/09/06 00:52:44;;;;;;;3.20;2.20;;;14.30;99.90;;;;;;4916823;29;20464;-70
2021/09/06 00:55:15;;;;;;;3.13;2.73;;;14.20;99.90;;;;;;4916098;29;20469;-69
2021/09/06 00:57:46;;;;;;;3.93;2.83;;;14.10;99.90;;;;;;4918302;29;20432;-69
2021/09/06 01:00:17;;;;;;;3.53;2.77;;;14.10;99.90;;;;;;4916413;29;20958;-68
2021/09/06 01:02:49;;;;;;;4.70;2.43;;;14.20;99.90;;;;;;4916491;29;20643;-70
2021/09/06 01:05:21;;;;;;;5.63;2.43;;;14.10;99.90;;;;;;4916559;29;20468;-69
2021/09/06 01:08:12;;;;;;;3.20;2.10;;;14.10;99.90;;;;;;4916649;29;20437;-70
2021/09/06 01:11:08;;;;;;;5.97;3.13;;;14.00;99.90;;;;;;4917642;29;20429;-69
2021/09/06 01:13:58;;;;;;;4.73;2.10;;;14.00;99.90;;;;;;4916223;29;20485;-69
2021/09/06 01:16:27;;;;;;;5.47;2.90;;;14.00;99.90;;;;;;4916566;29;20807;-69
2021/09/06 01:18:55;;;;;;;7.10;3.50;;;14.00;99.90;;;;;;4916637;29;20447;-69
2021/09/06 01:21:24;;;;;;;4.00;3.10;;;13.90;99.90;;;;;;4916598;29;20456;-70
2021/09/06 01:24:08;;;;;;;4.23;3.33;;;13.80;99.90;;;;;;4916252;29;20433;-70
2021/09/06 01:26:37;;;;;;;3.87;2.80;;;13.90;99.90;;;;;;4917689;29;20432;-70
2021/09/06 01:29:08;;;;;;;5.00;3.80;;;13.90;99.90;;;;;;4917527;29;20416;-70
2021/09/06 01:31:38;;;;;;;4.60;2.73;;;13.80;99.90;;;;;;4916180;29;20524;-70
2021/09/06 01:34:08;;;;;;;4.70;3.20;;;13.80;99.90;;;;;;4916297;29;20555;-69
2021/09/06 01:36:39;;;;;;;4.17;3.77;;;13.80;99.90;;;;;;4916417;29;20955;-73
2021/09/06 01:39:07;;;;;;;4.37;3.57;;;13.80;99.90;;;;;;4917741;29;20929;-70
2021/09/06 01:41:37;;;;;;;5.13;2.60;;;13.80;99.90;;;;;;4915995;29;20443;-71
2021/09/06 01:44:07;;;;;;;5.27;2.57;;;13.70;99.90;;;;;;4916192;29;20469;-69
2021/09/06 01:46:36;;;;;;;5.50;3.43;;;13.60;99.90;;;;;;4916146;29;20441;-69
2021/09/06 01:49:06;;;;;;;4.60;3.00;;;13.60;99.90;;;;;;4915928;29;20458;-69
2021/09/06 01:51:36;;;;;;;4.27;2.73;;;13.70;99.90;;;;;;4915673;29;20469;-70
2021/09/06 01:54:05;;;;;;;3.73;3.07;;;13.60;99.90;;;;;;4916186;29;20461;-70
2021/09/06 01:56:34;;;;;;;4.53;3.43;;;13.50;99.90;;;;;;4915599;29;20450;-71
2021/09/06 01:59:05;;;;;;;4.27;3.10;;;13.40;99.90;;;;;;4916027;29;20465;-71
2021/09/06 02:01:33;;;;;;;5.10;3.93;;;13.40;99.90;;;;;;4916008;29;20787;-70
2021/09/06 02:04:02;;;;;;;4.43;3.43;;;13.30;99.90;;;;;;4915946;29;20445;-70
2021/09/06 02:06:32;;;;;;;9.57;4.10;;;13.20;99.90;;;;;;4915540;29;20852;-69
2021/09/06 02:09:04;;;;;;;4.53;3.07;;;13.20;99.90;;;;;;4915585;29;20419;-70
2021/09/06 02:11:36;;;;;;;5.70;4.00;;;13.20;99.90;;;;;;4915297;29;20494;-70
2021/09/06 02:14:08;;;;;;;4.50;3.53;;;13.10;99.90;;;;;;4915459;29;20955;-70
2021/09/06 02:16:37;;;;;;;5.70;2.83;;;13.10;99.90;;;;;;4915417;29;20764;-69
2021/09/06 02:19:16;;;;;;;3.40;2.40;;;13.00;99.90;;;;;;4915415;29;20432;-69
2021/09/06 02:21:48;;;;;;;6.40;3.73;;;13.00;99.90;;;;;;4914898;29;20810;-71
2021/09/06 02:24:18;;;;;;;5.50;3.80;;;12.90;99.90;;;;;;4915243;29;20915;-70
2021/09/06 02:26:51;;;;;;;4.73;3.20;;;12.90;99.90;;;;;;4915516;29;20957;-69
2021/09/06 02:29:21;;;;;;;5.90;3.43;;;12.90;99.90;;;;;;4916098;29;20453;-70
2021/09/06 02:32:09;;;;;;;8.03;2.83;;;12.90;99.90;;;;;;4916061;29;20853;-69
2021/09/06 02:34:52;;;;;;;9.23;3.63;;;12.90;99.90;;;;;;4915739;29;20525;-69
2021/09/06 02:37:21;;;;;;;7.07;4.47;;;12.80;99.90;;;;;;4915574;29;20408;-70
2021/09/06 02:39:50;;;;;;;4.47;3.77;;;12.80;99.90;;;;;;4915192;29;20424;-70
2021/09/06 02:42:18;;;;;;;12.30;4.23;;;12.80;99.90;;;;;;4914738;29;20829;-69
2021/09/06 02:44:48;;;;;;;3.63;2.70;;;12.70;99.90;;;;;;4914938;29;20424;-69
2021/09/06 02:47:17;;;;;;;4.27;3.77;;;12.70;99.90;;;;;;4916470;29;20503;-68
2021/09/06 02:49:46;;;;;;;9.80;4.40;;;12.60;99.90;;;;;;4916532;29;20401;-70
2021/09/06 02:52:20;;;;;;;5.63;4.10;;;12.60;99.90;;;;;;4916340;29;20449;-69
2021/09/06 02:54:49;;;;;;;5.40;3.40;;;12.60;99.90;;;;;;4916691;29;20471;-69
2021/09/06 02:57:17;;;;;;;6.10;4.07;;;12.60;99.90;;;;;;4915038;29;20471;-70
2021/09/06 02:59:50;;;;;;;5.27;3.20;;;12.50;99.90;;;;;;4920133;23;20505;-73
2021/09/06 03:02:19;;;;;;;9.20;4.20;;;12.50;99.90;;;;;;4918007;29;20450;-73
2021/09/06 03:04:48;;;;;;;5.63;4.33;;;12.50;99.90;;;;;;4918095;29;20528;-72
2021/09/06 03:07:16;;;;;;;7.63;4.80;;;12.40;99.90;;;;;;4917142;29;20821;-74
2021/09/06 03:09:44;;;;;;;5.77;4.27;;;12.40;99.90;;;;;;4912988;29;21026;-74
2021/09/06 03:12:13;;;;;;;11.00;6.47;;;12.30;99.90;;;;;;4896898;29;20427;-74
2021/09/06 03:14:45;;;;;;;8.80;5.90;;;12.30;99.90;;;;;;4897143;29;20897;-74
2021/09/06 03:17:14;;;;;;;8.03;5.37;;;12.30;99.90;;;;;;4896852;29;20496;-74
2021/09/06 03:19:43;;;;;;;8.77;6.57;;;12.30;99.90;;;;;;4897254;29;20956;-74
2021/09/06 03:22:11;;;;;;;9.07;5.97;;;12.20;99.90;;;;;;4897462;29;20421;-73
2021/09/06 03:24:39;;;;;;;10.33;4.93;;;12.20;99.90;;;;;;4899877;29;20433;-74
2021/09/06 03:27:07;;;;;;;7.80;6.00;;;12.10;99.90;;;;;;4899348;29;21017;-74
2021/09/06 03:29:39;;;;;;;12.50;5.10;;;12.00;99.90;;;;;;4900641;29;20462;-73
2021/09/06 03:32:07;;;;;;;7.73;4.90;;;12.00;99.90;;;;;;4903428;29;20441;-74
2021/09/06 03:34:37;;;;;;;7.07;6.00;;;11.90;99.90;;;;;;4896245;29;20452;-74
2021/09/06 03:37:08;;;;;;;5.70;5.00;;;11.90;99.90;;;;;;4896138;29;20453;-74
2021/09/06 03:39:36;;;;;;;7.10;5.57;;;11.90;99.90;;;;;;4897375;29;20965;-73
2021/09/06 03:42:05;;;;;;;9.30;6.73;;;11.90;99.90;;;;;;4896379;29;20442;-74
2021/09/06 03:44:39;;;;;;;6.03;5.27;;;11.80;99.90;;;;;;4896176;29;20439;-74
2021/09/06 03:47:08;;;;;;;9.80;5.67;;;11.80;99.90;;;;;;4896335;29;20405;-74
2021/09/06 03:49:37;;;;;;;8.93;5.97;;;11.80;99.90;;;;;;4896305;29;20440;-74
2021/09/06 03:52:07;;;;;;;9.60;6.57;;;11.70;99.90;;;;;;4896309;29;20431;-74
2021/09/06 03:54:35;;;;;;;6.27;5.40;;;11.70;99.90;;;;;;4896605;29;20489;-73
2021/09/06 03:57:08;;;;;;;6.97;4.77;;;11.70;99.90;;;;;;4896066;29;20417;-75
2021/09/06 03:59:37;;;;;;;9.00;5.83;;;11.60;99.90;;;;;;4896294;29;21043;-73
2021/09/06 04:02:07;;;;;;;9.10;6.40;;;11.60;99.90;;;;;;4896318;29;20420;-74
2021/09/06 04:04:37;;;;;;;7.83;5.40;;;11.60;99.90;;;;;;4896884;29;20437;-74
2021/09/06 04:07:06;;;;;;;7.57;6.03;;;11.60;99.90;;;;;;4895997;29;20803;-74
2021/09/06 04:09:41;;;;;;;7.43;5.20;;;11.60;99.90;;;;;;4895400;29;20833;-74
2021/09/06 04:12:10;;;;;;;8.30;5.33;;;11.60;99.90;;;;;;4896915;29;20946;-73
2021/09/06 04:14:38;;;;;;;8.13;5.77;;;11.50;99.90;;;;;;4895559;29;20416;-74
2021/09/06 04:17:07;;;;;;;6.97;6.07;;;11.50;99.90;;;;;;4895518;29;20482;-74
2021/09/06 04:19:42;;;;;;;10.03;6.90;;;11.50;99.90;;;;;;4895889;29;20481;-74
2021/09/06 04:22:10;;;;;;;13.30;7.43;;;11.50;99.90;;;;;;4895508;29;20493;-74
2021/09/06 04:24:41;;;;;;;13.63;6.63;;;11.50;99.90;;;;;;4895518;29;20793;-74
2021/09/06 04:27:09;;;;;;;13.97;7.83;;;11.50;99.90;;;;;;4895524;29;20785;-73
2021/09/06 04:29:38;;;;;;;10.40;6.30;;;11.50;99.90;;;;;;4895135;29;20429;-74
2021/09/06 04:32:07;;;;;;;14.07;7.80;;;11.50;99.90;;;;;;4885202;29;20481;-74
2021/09/06 04:34:35;;;;;;;9.10;7.03;;;11.50;99.90;;;;;;4879754;29;20430;-74
2021/09/06 04:37:06;;;;;;;10.13;7.03;;;11.50;99.90;;;;;;4911114;29;20477;-73
2021/09/06 04:39:39;;;;;;;10.73;5.67;;;11.50;99.90;;;;;;4911261;29;20488;-74
2021/09/06 04:42:08;;;;;;;10.60;6.60;;;11.60;99.90;;;;;;4913702;29;20441;-73
2021/09/06 04:44:36;;;;;;;8.40;6.17;;;11.50;99.90;;;;;;4898277;29;20438;-73
2021/09/06 04:47:07;;;;;;;7.07;5.70;;;11.60;99.90;;;;;;4898493;29;20448;-74
2021/09/06 04:49:35;;;;;;;8.10;7.03;;;11.60;99.90;;;;;;4898187;29;20457;-73
2021/09/06 04:52:23;;;;;;;10.03;5.60;;;11.60;99.90;;;;;;4892802;29;20469;-74
2021/09/06 04:54:51;;;;;;;10.20;6.60;;;11.60;99.90;;;;;;4876597;29;20501;-73
2021/09/06 04:57:19;;;;;;;9.67;6.47;;;11.70;99.90;;;;;;4860901;29;20566;-73
2021/09/06 04:59:49;;;;;;;9.10;6.80;;;11.80;99.90;;;;;;4861074;29;20995;-74
2021/09/06 05:02:17;;;;;;;14.17;5.27;;;12.30;99.90;;;;;;4877046;29;20435;-73
2021/09/06 05:04:46;;;;;;;9.47;6.40;;;13.10;99.90;;;;;;4861574;29;20522;-74
2021/09/06 05:07:14;;;;;;;7.00;5.03;;;13.90;99.90;;;;;;4877068;29;20447;-74
2021/09/06 05:09:45;;;;;;;7.90;3.80;;;14.60;99.90;;;;;;4868898;29;20877;-74
2021/09/06 05:12:14;;;;;;;6.53;3.67;;;14.80;99.90;;;;;;4869741;29;20422;-72
2021/09/06 05:14:42;;;;;;;8.43;3.97;;;14.80;99.90;;;;;;4868550;29;20517;-74
2021/09/06 05:17:10;;;;;;;4.80;2.83;;;14.80;99.90;;;;;;4871068;29;20476;-74
2021/09/06 05:19:40;;;;;;;3.97;3.57;;;14.20;99.90;;;;;;4875047;29;20862;-73
2021/09/06 05:22:08;;;;;;;3.77;3.23;;;13.70;99.90;;;;;;4878465;29;20431;-74
2021/09/06 05:24:39;;;;;;;3.43;2.30;;;13.30;99.90;;;;;;4889269;29;20401;-73
2021/09/06 05:27:10;;;;;;;4.20;2.40;;;13.10;99.90;;;;;;4872544;29;20424;-73
2021/09/06 05:29:38;;;;;;;3.70;2.80;;;13.00;99.90;;;;;;4874709;29;20555;-74
2021/09/06 05:32:07;;;;;;;3.17;2.80;;;12.90;99.90;;;;;;4872307;29;20426;-72
2021/09/06 05:34:38;;;;;;;3.80;2.83;;;12.90;99.90;;;;;;4882699;29;20421;-73
2021/09/06 05:37:06;;;;;;;2.90;2.03;;;13.00;99.90;;;;;;4881518;29;21059;-74
2021/09/06 05:39:35;;;;;;;4.70;3.37;;;13.10;99.90;;;;;;4882016;29;20531;-73
2021/09/06 05:42:06;;;;;;;7.73;4.07;;;13.20;99.90;;;;;;4882488;29;20453;-74
2021/09/06 05:44:35;;;;;;;3.40;2.20;;;13.20;99.90;;;;;;4882821;29;20435;-74
2021/09/06 05:47:04;;;;;;;2.93;2.27;;;13.30;99.90;;;;;;4882632;29;20474;-75
2021/09/06 05:49:36;;;;;;;4.93;2.80;;;13.40;99.90;;;;;;4882811;29;21064;-73
2021/09/06 05:52:05;;;;;;;2.80;2.30;;;13.40;99.90;;;;;;4882656;29;21000;-73
2021/09/06 05:54:39;;;;;;;5.40;2.30;;;13.60;99.90;;;;;;4882716;29;20509;-74
2021/09/06 05:57:12;;;;;;;5.73;3.57;;;13.70;99.90;;;;;;4899928;29;20454;-73
2021/09/06 05:59:42;;;;;;;3.50;2.80;;;13.80;99.90;;;;;;4882682;29;20447;-76
2021/09/06 06:02:10;;;;;;;3.87;2.53;;;13.80;99.90;;;;;;4882774;29;20518;-74
2021/09/06 06:04:40;;;;;;;6.50;2.70;;;13.90;99.90;;;;;;4882589;29;20417;-73
2021/09/06 06:07:08;;;;;;;3.90;2.90;;;14.00;99.90;;;;;;4882941;29;20409;-75
2021/09/06 06:09:37;;;;;;;5.73;3.30;;;14.20;99.90;;;;;;4883002;29;20461;-74
2021/09/06 06:12:07;;;;;;;5.47;2.87;;;14.20;99.90;;;;;;4882424;29;20464;-75
2021/09/06 06:14:36;;;;;;;3.40;2.30;;;14.40;99.90;;;;;;4882554;29;20522;-75
2021/09/06 06:17:07;;;;;;;3.97;2.33;;;14.40;99.90;;;;;;4882445;29;20473;-74
2021/09/06 06:19:39;;;;;;;4.23;1.80;;;14.60;99.90;;;;;;4882264;29;20462;-75
2021/09/06 06:22:26;;;;;;;2.33;1.83;;;14.60;99.90;;;;;;4899263;29;20404;-74
2021/09/06 06:25:17;;;;;;;5.07;3.20;;;14.70;99.90;;;;;;4880176;29;20454;-74
2021/09/06 06:27:53;;;;;;;3.57;2.20;;;14.80;99.90;;;;;;4881843;29;20428;-74
2021/09/06 06:30:23;;;;;;;3.93;3.43;;;14.80;99.90;;;;;;4881984;29;20443;-74
2021/09/06 06:32:52;;;;;;;6.17;2.97;;;14.80;99.90;;;;;;4881484;29;20424;-74
2021/09/06 06:35:30;;;;;;;5.20;2.40;;;14.90;99.90;;;;;;4881812;29;20477;-73
2021/09/06 06:37:59;;;;;;;3.53;2.60;;;15.00;99.90;;;;;;4881807;29;20514;-74
2021/09/06 06:40:32;;;;;;;3.50;2.60;;;15.00;99.90;;;;;;4882326;29;20431;-73
2021/09/06 06:43:02;;;;;;;4.77;3.23;;;15.20;99.90;;;;;;4881870;29;20517;-74
2021/09/06 06:45:31;;;;;;;4.10;2.40;;;15.30;99.90;;;;;;4881648;29;20845;-73
2021/09/06 06:48:01;;;;;;;4.20;2.90;;;15.40;99.90;;;;;;4881871;29;20413;-72
2021/09/06 06:50:30;;;;;;;4.97;2.70;;;15.50;99.90;;;;;;4881531;29;20413;-74
2021/09/06 06:52:58;;;;;;;3.40;2.00;;;15.50;99.90;;;;;;4898641;29;20840;-74
2021/09/06 06:55:27;;;;;;;2.77;2.57;;;15.60;99.90;;;;;;4881930;29;20588;-73
2021/09/06 06:57:58;;;;;;;3.20;2.70;;;15.80;99.90;;;;;;4882196;29;20460;-74
2021/09/06 07:00:27;;;;;;;2.63;2.30;;;15.90;99.90;;;;;;4883483;29;21001;-73
2021/09/06 07:02:56;;;;;;;4.43;2.87;;;16.00;99.90;;;;;;4901456;29;20405;-72
2021/09/06 07:05:27;;;;;;;4.40;3.13;;;16.10;99.90;;;;;;4885001;29;20454;-74
2021/09/06 07:07:56;;;;;;;4.53;3.47;;;16.20;99.90;;;;;;4885715;29;20474;-73
2021/09/06 07:10:24;;;;;;;4.27;3.50;;;16.20;99.90;;;;;;4901548;29;20404;-75
2021/09/06 07:12:54;;;;;;;4.20;3.13;;;16.30;99.90;;;;;;4882631;29;20494;-75
2021/09/06 07:15:22;;;;;;;5.67;4.07;;;16.40;99.90;;;;;;4883170;29;20425;-74
2021/09/06 07:17:51;;;;;;;7.13;3.50;;;16.40;99.90;;;;;;4893241;29;20445;-73
2021/09/06 07:20:19;;;;;;;6.50;4.30;;;16.40;99.90;;;;;;4897662;29;20482;-73
2021/09/06 07:22:49;;;;;;;7.13;2.87;;;16.50;99.90;;;;;;4901251;29;20522;-74
2021/09/06 07:25:17;;;;;;;3.83;3.23;;;16.50;99.90;;;;;;4899830;29;20420;-74
2021/09/06 07:27:46;;;;;;;5.10;3.33;;;16.40;99.90;;;;;;4884103;29;20452;-74
2021/09/06 07:30:15;;;;;;;7.07;4.00;;;16.60;99.90;;;;;;4883221;29;20441;-74
2021/09/06 07:32:44;;;;;;;4.87;3.00;;;16.70;99.90;;;;;;4881857;29;20421;-74
2021/09/06 07:35:12;;;;;;;4.50;3.20;;;16.90;99.90;;;;;;4880986;29;20450;-74
2021/09/06 07:37:41;;;;;;;3.60;2.50;;;17.00;99.90;;;;;;4881490;29;20854;-74
2021/09/06 07:40:12;;;;;;;4.80;3.57;;;17.00;99.90;;;;;;4881153;29;20561;-73
2021/09/06 07:42:47;;;;;;;4.77;3.20;;;17.00;99.90;;;;;;4899447;29;20458;-72
2021/09/06 07:45:16;;;;;;;3.10;2.80;;;17.00;99.90;;;;;;4881016;29;20815;-72
2021/09/06 07:47:44;;;;;;;4.73;3.10;;;16.90;99.90;;;;;;4880710;29;20533;-73
2021/09/06 07:50:19;;;;;;;4.30;2.97;;;17.10;99.90;;;;;;4880299;29;20433;-73
2021/09/06 07:52:48;;;;;;;5.17;2.97;;;17.20;99.90;;;;;;4880386;29;20427;-73
2021/09/06 07:55:18;;;;;;;5.80;3.00;;;17.20;99.90;;;;;;4880238;29;20444;-74
2021/09/06 07:57:46;;;;;;;6.77;3.10;;;17.20;99.90;;;;;;4880217;29;20484;-73
2021/09/06 08:00:15;;;;;;;3.40;2.50;;;17.40;99.90;;;;;;4879939;29;21021;-73
2021/09/06 08:02:49;;;;;;;4.83;3.87;;;17.40;99.90;;;;;;4880338;29;20421;-73
2021/09/06 08:05:23;;;;;;;3.73;2.73;;;17.40;99.90;;;;;;4880125;29;20424;-73
2021/09/06 08:07:57;;;;;;;4.13;3.60;;;17.40;99.90;;;;;;4880019;29;20982;-74
2021/09/06 08:10:28;;;;;;;4.00;2.80;;;17.50;99.90;;;;;;4880047;29;20442;-74
2021/09/06 08:12:56;;;;;;;6.50;3.63;;;17.60;99.90;;;;;;4879974;29;20453;-73
2021/09/06 08:15:28;;;;;;;3.83;2.90;;;17.60;99.90;;;;;;4880125;29;20529;-74
2021/09/06 08:18:00;;;;;;;4.77;2.93;;;17.70;99.90;;;;;;4880187;29;20444;-74
2021/09/06 08:20:29;;;;;;;4.30;3.00;;;17.80;99.90;;;;;;4879971;29;20449;-74
2021/09/06 08:22:58;;;;;;;4.03;2.93;;;17.90;99.90;;;;;;4879878;29;20463;-74
2021/09/06 08:25:27;;;;;;;6.20;3.13;;;17.90;99.90;;;;;;4879753;29;20470;-74
2021/09/06 08:27:55;;;;;;;5.07;2.97;;;18.00;99.90;;;;;;4879685;29;20481;-73
2021/09/06 08:30:24;;;;;;;4.83;3.30;;;18.10;99.90;;;;;;4879754;29;21027;-74
2021/09/06 08:32:52;;;;;;;5.27;3.07;;;18.20;99.90;;;;;;4879985;29;20948;-74
2021/09/06 08:35:21;;;;;;;10.00;6.20;;;18.30;99.90;;;;;;4896728;29;20461;-73
2021/09/06 08:37:49;;;;;;;5.20;3.43;;;18.30;99.90;;;;;;4879811;29;20448;-73
2021/09/06 08:40:17;;;;;;;9.00;4.33;;;18.20;99.90;;;;;;4879783;29;20415;-73
2021/09/06 08:42:47;;;;;;;6.60;3.20;;;18.10;99.90;;;;;;4879632;29;20494;-73
2021/09/06 08:45:15;;;;;;;4.30;3.40;;;18.10;99.90;;;;;;4879567;29;20494;-74
2021/09/06 08:47:47;;;;;;;5.73;5.20;;;18.20;99.90;;;;;;4880233;29;20409;-73
2021/09/06 08:50:17;;;;;;;4.37;3.20;;;18.30;99.90;;;;;;4879525;29;20458;-73
2021/09/06 08:52:46;;;;;;;5.73;3.63;;;18.40;99.90;;;;;;4879753;29;20425;-74
2021/09/06 08:55:14;;;;;;;7.03;5.47;;;18.50;99.90;;;;;;4881435;29;20511;-74
2021/09/06 08:57:48;;;;;;;8.70;6.80;;;18.70;99.90;;;;;;4883535;29;20910;-72
2021/09/06 09:00:25;;;;;;;6.83;3.23;;;18.90;99.90;;;;;;4934743;23;20495;-74
2021/09/06 09:03:12;;;;;;;5.30;3.43;;;19.10;99.90;;;;;;4900527;29;20431;-76
2021/09/06 09:06:00;;;;;;;5.67;3.73;;;19.30;99.90;;;;;;4883811;29;21027;-75
2021/09/06 09:08:57;;;;;;;9.03;4.10;;;19.30;99.90;;;;;;4885111;29;20439;-75
2021/09/06 09:12:02;;;;;;;4.77;2.77;;;19.10;99.90;;;;;;4900525;29;20430;-74
2021/09/06 09:14:54;;;;;;;6.03;3.27;;;19.00;99.90;;;;;;4900067;29;20507;-74
2021/09/06 09:17:55;;;;;;;4.87;3.77;;;19.20;99.90;;;;;;4878468;29;20466;-74
2021/09/06 09:20:58;;;;;;;5.93;3.50;;;19.40;99.90;;;;;;4898319;29;20512;-74
2021/09/06 09:23:51;;;;;;;5.23;3.93;;;19.40;99.90;;;;;;4899521;29;20421;-74
2021/09/06 09:26:32;;;;;;;5.47;3.37;;;19.60;99.90;;;;;;4898983;29;20770;-74
2021/09/06 09:29:18;;;;;;;8.47;5.10;;;19.80;99.90;;;;;;4900380;29;20445;-74
2021/09/06 09:32:10;;;;;;;6.30;3.77;;;20.00;99.90;;;;;;4900373;29;20433;-75
2021/09/06 09:34:55;;;;;;;5.17;3.20;;;19.80;99.90;;;;;;4899132;29;20446;-75
2021/09/06 09:37:35;;;;;;;8.23;4.80;;;19.80;99.90;;;;;;4900667;29;20430;-77
2021/09/06 09:40:08;;;;;;;10.17;5.43;;;19.90;99.90;;;;;;4900591;29;20449;-75
2021/09/06 09:42:49;;;;;;;6.87;4.73;;;20.00;99.90;;;;;;4900506;29;20442;-75
2021/09/06 09:45:23;;;;;;;5.60;3.43;;;20.10;99.90;;;;;;4900913;29;20434;-74
2021/09/06 09:48:11;;;;;;;7.70;5.83;;;20.20;99.90;;;;;;4898699;29;20486;-73
2021/09/06 09:50:39;;;;;;;4.97;4.17;;;20.30;99.90;;;;;;4899632;29;20505;-74
2021/09/06 09:53:08;;;;;;;5.03;4.50;;;20.20;99.90;;;;;;4900220;29;20445;-74
2021/09/06 09:55:41;;;;;;;6.40;4.30;;;20.30;99.90;;;;;;4898344;29;20454;-73
2021/09/06 09:58:10;;;;;;;4.07;3.50;;;20.50;99.90;;;;;;4899661;29;20942;-74
2021/09/06 10:00:42;;;;;;;5.90;3.87;;;20.60;99.90;;;;;;4899363;29;20748;-74
2021/09/06 10:03:13;;;;;;;12.00;7.63;;;20.70;99.90;;;;;;4899698;29;20915;-74
2021/09/06 10:05:43;;;;;;;4.57;3.47;;;20.80;99.90;;;;;;4898972;29;20427;-74
2021/09/06 10:08:16;;;;;;;5.40;4.10;;;20.90;99.90;;;;;;4899265;29;21028;-74
2021/09/06 10:10:47;;;;;;;5.00;4.27;;;20.90;99.90;;;;;;4899253;29;20918;-74
2021/09/06 10:13:18;;;;;;;6.17;4.00;;;21.00;99.90;;;;;;4899621;29;20466;-74
2021/09/06 10:15:59;;;;;;;5.27;3.37;;;21.10;99.90;;;;;;4899800;29;20438;-74
2021/09/06 10:18:37;;;;;;;5.07;3.80;;;21.20;99.90;;;;;;4899449;29;20462;-74
2021/09/06 10:21:12;;;;;;;5.70;3.80;;;21.20;99.90;;;;;;4899791;29;21028;-75
2021/09/06 10:23:45;;;;;;;6.33;3.93;;;21.20;99.90;;;;;;4899394;29;20466;-74
2021/09/06 10:26:13;;;;;;;6.00;3.90;;;21.20;99.90;;;;;;4899066;29;20412;-74
2021/09/06 10:28:42;;;;;;;6.60;3.63;;;21.20;99.90;;;;;;4899013;29;20936;-75
2021/09/06 10:31:18;;;;;;;8.30;4.50;;;21.30;99.90;;;;;;4903367;29;20438;-74
2021/09/06 10:33:59;;;;;;;7.17;4.30;;;21.50;99.90;;;;;;4904088;29;20947;-75
2021/09/06 10:36:29;;;;;;;7.00;4.67;;;21.60;99.90;;;;;;4903235;29;20390;-75
2021/09/06 10:39:04;;;;;;;6.50;4.10;;;21.60;99.90;;;;;;4898964;29;20505;-73
2021/09/06 10:41:44;;;;;;;6.30;4.30;;;21.60;99.90;;;;;;4898802;29;20405;-74
2021/09/06 10:44:13;;;;;;;6.73;4.97;;;21.60;99.90;;;;;;4898682;29;20972;-76
2021/09/06 10:46:51;;;;;;;7.60;3.87;;;21.80;99.90;;;;;;4898510;29;20427;-76
2021/09/06 10:49:24;;;;;;;5.87;3.90;;;21.90;99.90;;;;;;4898983;29;20976;-76
2021/09/06 10:51:55;;;;;;;5.47;3.90;;;22.20;99.90;;;;;;4899270;29;20442;-75
2021/09/06 10:54:24;;;;;;;7.50;3.97;;;22.20;99.90;;;;;;4899831;29;20834;-75
2021/09/06 10:56:53;;;;;;;5.67;4.53;;;22.40;99.90;;;;;;4899440;29;20445;-76
2021/09/06 10:59:25;;;;;;;6.77;4.80;;;22.50;99.90;;;;;;4898809;29;20457;-75
2021/09/06 11:01:57;;;;;;;6.27;4.30;;;22.70;99.90;;;;;;4898679;29;20413;-76
2021/09/06 11:04:31;;;;;;;6.43;3.87;;;22.80;99.90;;;;;;4899017;29;20438;-75
2021/09/06 11:07:02;;;;;;;4.50;3.57;;;22.80;99.90;;;;;;4898960;29;20760;-74
2021/09/06 11:09:35;;;;;;;6.40;3.83;;;22.90;99.90;;;;;;4898730;29;20454;-75
2021/09/06 11:12:07;;;;;;;6.00;3.70;;;22.90;99.90;;;;;;4898837;29;20407;-76
2021/09/06 11:14:37;;;;;;;7.20;4.60;;;22.90;99.90;;;;;;4898805;29;20449;-76
2021/09/06 11:17:17;;;;;;;6.53;4.00;;;23.00;99.90;;;;;;4898580;29;20427;-75
2021/09/06 11:19:46;;;;;;;10.03;4.47;;;23.20;99.90;;;;;;4906363;29;20481;-77
2021/09/06 11:22:18;;;;;;;7.10;4.57;;;23.30;99.90;;;;;;4909324;29;20495;-75
2021/09/06 11:24:46;;;;;;;6.10;5.10;;;23.30;99.90;;;;;;4911168;29;20413;-74
2021/09/06 11:27:26;;;;;;;5.70;3.67;;;23.40;99.90;;;;;;4913077;29;20449;-75
2021/09/06 11:29:54;;;;;;;4.47;3.80;;;23.40;99.90;;;;;;4900419;29;20458;-75
2021/09/06 11:32:22;;;;;;;6.93;5.17;;;23.20;99.90;;;;;;4898091;29;20423;-75
2021/09/06 11:35:03;;;;;;;5.83;4.50;;;23.10;99.90;;;;;;4898094;29;20435;-74
2021/09/06 11:37:31;;;;;;;5.80;3.57;;;23.00;99.90;;;;;;4898644;29;20739;-75
2021/09/06 11:40:00;;;;;;;6.27;4.70;;;22.90;99.90;;;;;;4898234;29;20897;-75
2021/09/06 11:42:29;;;;;;;6.00;4.33;;;23.10;99.90;;;;;;4898450;29;20401;-75
2021/09/06 11:45:00;;;;;;;6.03;5.20;;;23.20;99.90;;;;;;4898416;29;21012;-75
2021/09/06 11:47:29;;;;;;;5.97;4.40;;;23.40;99.90;;;;;;4898640;29;20510;-74
2021/09/06 11:50:00;;;;;;;8.13;5.87;;;23.70;99.90;;;;;;4898077;29;20490;-76
2021/09/06 11:52:31;;;;;;;4.87;4.17;;;23.80;99.90;;;;;;4898571;29;20401;-75
2021/09/06 11:54:59;;;;;;;6.20;4.67;;;23.90;99.90;;;;;;4898435;29;20402;-74
2021/09/06 11:57:30;;;;;;;3.97;3.37;;;23.80;99.90;;;;;;4898090;29;20438;-74
2021/09/06 11:59:58;;;;;;;5.80;3.43;;;23.80;99.90;;;;;;4898612;29;20481;-75
2021/09/06 12:02:27;;;;;;;3.23;2.93;;;23.90;99.90;;;;;;4897869;29;20521;-75
2021/09/06 12:05:15;;;;;;;6.90;4.13;;;24.10;99.90;;;;;;4897665;29;20472;-74
2021/09/06 12:07:48;;;;;;;6.00;4.70;;;24.00;99.90;;;;;;4898039;29;20430;-73
2021/09/06 12:10:27;;;;;;;7.97;4.37;;;23.80;99.90;;;;;;4897903;29;20442;-75
2021/09/06 12:13:04;;;;;;;4.63;3.50;;;23.60;99.90;;;;;;4897357;29;20413;-77
2021/09/06 12:15:34;;;;;;;5.80;4.53;;;23.50;99.90;;;;;;4897467;29;20426;-74
2021/09/06 12:18:11;;;;;;;5.43;3.80;;;23.40;99.90;;;;;;4896070;29;20516;-75
2021/09/06 12:20:42;;;;;;;6.07;3.93;;;23.20;99.90;;;;;;4897464;29;20436;-76
2021/09/06 12:23:12;;;;;;;4.43;3.60;;;23.10;99.90;;;;;;4897417;29;20426;-75
2021/09/06 12:25:42;;;;;;;6.97;4.17;;;22.80;99.90;;;;;;4897568;29;20492;-75
2021/09/06 12:28:11;;;;;;;5.90;3.80;;;22.70;99.90;;;;;;4897597;29;20397;-74
2021/09/06 12:30:41;;;;;;;5.87;3.70;;;22.80;99.90;;;;;;4896427;29;20450;-74
2021/09/06 12:33:11;;;;;;;7.37;4.80;;;22.80;99.90;;;;;;4897249;29;20433;-75
2021/09/06 12:35:40;;;;;;;5.17;3.93;;;22.60;99.90;;;;;;4897329;29;20434;-75
2021/09/06 12:38:08;;;;;;;6.73;3.73;;;22.50;99.90;;;;;;4897285;29;20732;-76
2021/09/06 12:40:36;;;;;;;5.83;3.77;;;22.70;99.90;;;;;;4897493;29;20513;-74
2021/09/06 12:43:04;;;;;;;5.07;3.37;;;22.80;99.90;;;;;;4895859;29;20474;-75
2021/09/06 12:45:32;;;;;;;7.60;5.30;;;23.10;99.90;;;;;;4897039;29;20904;-74
2021/09/06 12:48:01;;;;;;;6.43;3.30;;;23.40;99.90;;;;;;4897348;29;20426;-75
2021/09/06 12:50:29;;;;;;;6.00;4.00;;;23.60;99.90;;;;;;4897113;29;20506;-76
2021/09/06 12:52:58;;;;;;;6.00;4.80;;;23.70;99.90;;;;;;4896096;29;20438;-76
2021/09/06 12:55:26;;;;;;;6.57;3.87;;;23.80;99.90;;;;;;4897096;29;20434;-74
2021/09/06 12:57:54;;;;;;;5.30;3.70;;;23.90;99.90;;;;;;4897172;29;20985;-76
2021/09/06 13:00:24;;;;;;;4.90;3.67;;;23.90;99.90;;;;;;4896676;29;20478;-75
2021/09/06 13:02:52;;;;;;;4.90;3.80;;;24.00;99.90;;;;;;4897215;29;20414;-75
2021/09/06 13:05:21;;;;;;;7.93;5.17;;;23.70;99.90;;;;;;4897063;29;20438;-74
2021/09/06 13:07:49;;;;;;;6.40;4.07;;;23.60;99.90;;;;;;4897674;29;20805;-75